KSKA

Fairchild AFB Airport

Spokane, Washington, USA
METAR KSKA 211358Z 17004KT 10SM OVC080 13/13 A2994 RMK AO2A SLP135 T01330133 $
Observed Flight Rules
May-21 @ 13:58 UTC (52 minutes ago) Visual Flight Rules
Wind Visibility Clouds
170° at 4 knots 10 miles
  • Overcast at 8,000' AGL
Temperatures Readings
Current 13°C / 55°F
Dewpoint 13°C / 55°F
Humidity 100%
Altimeter 29.94" Hg
Pressure 1013.5 hPa
Elevation 750
METAR KSKA 211358Z 17004KT 10SM OVC080 13/13 A2994 RMK AO2A SLP135 T01330133 $
Observed Flight Rules
May-21 @ 13:58 UTC
(52 minutes ago)
VFR
Wind Visibility
170° at 4 knots 10 miles
Clouds
  • Overcast at 8,000' AGL
Temperature Dewpoint
13°C / 55°F 13°C / 55°F
Humidity Altimeter Pressure
100% 29.94" Hg 1013.5 hPa